Kahului Airport Kahului US
ICAO: PHOG
IATA:
Category: Medium
Scheduled Services:

Elevation: 54 ft
TransAlt. 18000 ft.

Airport Communications:
MAUI APP/DEP:119.5
ATIS:128.6
MAUI CLNC DEL:120.6
CTAF:118.7
GND:121.9
MAUI RDO:123.6
MAUI TWR:118.7
UNICOM:122.95

PHOG Zoom In..

If you have problems with the map follow the link
https://www.worldairports.se/pages/airport.php?
ICAO=PHOG

Runways:

(A) RW 02 length 6995 ft width 150 ft
ILS 110.10 / hdg 24

(B) RW 05 length 4990 ft width 150 ft
---- / hdg 54

(C) RW 20 length 6995 ft width 150 ft
---- / hdg 204

(D) RW 23 length 4990 ft width 150 ft
---- / hdg 234

Location; PHOG
Day. 14 / Time. 16.54 Zulu
* Altimeter: 29.97
* Temperature: 24° c. 75.2°f.
* Wind from: 050° Speed 15 kn.
Dewpoint: 19° c.
Visibility: 10 Statute Miles.
Clouds: Few 3000 ft.

PHOG 141654Z 05015KT 10SM FEW030 24/19 A2997 RMK AO2 SLP154 T02390189


Wind From 050°
Speed 15 kn.

 
 
jpsmedia worldairports.se 2019   terms of use